createdAt,value
2022-09-09T00:01:52.227Z,97445.03
2022-09-09T00:06:59.180Z,97442.63
2022-09-09T00:12:24.068Z,97436.09
2022-09-09T00:17:32.014Z,97432.78
2022-09-09T00:22:33.746Z,97422.50
2022-09-09T00:27:48.103Z,97413.06
2022-09-09T00:32:51.561Z,97418.38
2022-09-09T00:37:57.416Z,97408.28
2022-09-09T00:43:23.363Z,97412.69
2022-09-09T00:48:37.063Z,97412.28
2022-09-09T00:54:24.045Z,97413.38
2022-09-09T00:59:47.326Z,97419.13
2022-09-09T01:04:48.874Z,97411.84
2022-09-09T01:10:01.429Z,97415.19
2022-09-09T01:15:17.864Z,97420.94
2022-09-09T01:20:28.133Z,97422.44
2022-09-09T01:25:45.214Z,97418.97
2022-09-09T01:30:57.530Z,97419.88
2022-09-09T01:36:07.468Z,97420.25
2022-09-09T01:41:15.163Z,97416.56
2022-09-09T01:46:34.804Z,97405.19
2022-09-09T01:51:40.681Z,97404.13
2022-09-09T01:57:01.019Z,97408.59
2022-09-09T02:02:38.403Z,97403.31
2022-09-09T02:07:50.436Z,97407.97
2022-09-09T02:13:10.587Z,97407.34
2022-09-09T02:18:14.942Z,97410.13
2022-09-09T02:23:18.750Z,97410.47
2022-09-09T02:28:26.613Z,97409.13
2022-09-09T02:33:31.765Z,97407.53
2022-09-09T02:38:38.703Z,97413.88
2022-09-09T02:43:44.452Z,97400.81
2022-09-09T02:48:55.563Z,97408.59
2022-09-09T02:54:10.171Z,97406.69
2022-09-09T02:59:12.649Z,97400.44
2022-09-09T03:04:15.000Z,97398.28
2022-09-09T03:09:17.057Z,97402.88
2022-09-09T03:14:22.177Z,97394.16
2022-09-09T03:19:25.585Z,97397.56
2022-09-09T03:24:27.190Z,97403.13
2022-09-09T03:29:29.401Z,97408.78
2022-09-09T03:34:33.355Z,97412.53
2022-09-09T03:39:34.931Z,97408.16
2022-09-09T03:44:36.549Z,97407.06
2022-09-09T03:49:38.260Z,97404.13
2022-09-09T03:54:40.316Z,97401.44
2022-09-09T03:59:41.935Z,97405.81
2022-09-09T04:04:44.691Z,97403.88
2022-09-09T04:09:46.870Z,97405.72
2022-09-09T04:14:49.842Z,97394.16
2022-09-09T04:19:51.443Z,97388.34
2022-09-09T04:24:53.169Z,97387.19
2022-09-09T04:29:57.696Z,97390.59
2022-09-09T04:35:02.083Z,97401.13
2022-09-09T04:40:04.373Z,97398.41
2022-09-09T04:45:07.894Z,97401.22
2022-09-09T04:50:10.436Z,97397.63
2022-09-09T04:55:13.762Z,97406.44
2022-09-09T05:00:19.832Z,97404.53
2022-09-09T05:05:21.657Z,97407.75
2022-09-09T05:10:24.743Z,97413.38
2022-09-09T05:15:26.475Z,97413.72
2022-09-09T05:20:28.972Z,97415.06
2022-09-09T05:25:30.634Z,97416.84
2022-09-09T05:30:32.335Z,97415.50
2022-09-09T05:35:39.167Z,97414.78
2022-09-09T05:40:49.000Z,97425.34
2022-09-09T05:46:02.444Z,97425.34
2022-09-09T05:51:07.845Z,97429.66
2022-09-09T05:56:24.820Z,97426.81
2022-09-09T06:01:32.791Z,97435.00
2022-09-09T06:06:37.928Z,97441.22
2022-09-09T06:11:44.901Z,97437.69
2022-09-09T06:16:48.109Z,97440.88
2022-09-09T06:21:54.206Z,97436.09
2022-09-09T06:26:55.861Z,97436.75
2022-09-09T06:32:03.402Z,97435.63
2022-09-09T06:37:07.232Z,97448.44
2022-09-09T06:42:14.279Z,97442.13
2022-09-09T06:47:25.670Z,97439.53
2022-09-09T06:52:28.186Z,97440.19
2022-09-09T06:57:37.313Z,97451.25
2022-09-09T07:02:42.068Z,97446.88
2022-09-09T07:07:44.839Z,97451.47
2022-09-09T07:12:53.273Z,97449.66
2022-09-09T07:17:56.041Z,97450.66
2022-09-09T07:22:58.168Z,97458.94
2022-09-09T07:28:00.647Z,97458.72
2022-09-09T07:33:04.155Z,97456.97
2022-09-09T07:38:07.589Z,97461.56
2022-09-09T07:43:11.038Z,97467.75
2022-09-09T07:48:14.415Z,97468.78
2022-09-09T07:53:16.028Z,97473.84
2022-09-09T07:58:17.666Z,97478.22
2022-09-09T08:03:19.296Z,97480.06
2022-09-09T08:08:21.140Z,97484.63
2022-09-09T08:13:22.670Z,97485.69
2022-09-09T08:18:24.445Z,97492.50
2022-09-09T08:23:26.903Z,97488.19
2022-09-09T08:28:28.519Z,97485.34
2022-09-09T08:33:30.250Z,97474.03
2022-09-09T08:38:31.916Z,97487.94
2022-09-09T08:43:34.743Z,97490.31
2022-09-09T08:49:02.317Z,97497.00
2022-09-09T08:54:04.983Z,97494.50
2022-09-09T08:59:14.587Z,97489.41
2022-09-09T09:04:36.516Z,97496.50
2022-09-09T09:09:59.686Z,97490.63
2022-09-09T09:15:02.148Z,97495.72
2022-09-09T09:20:04.291Z,97486.22
2022-09-09T09:25:21.370Z,97481.78
2022-09-09T09:30:30.594Z,97482.59
2022-09-09T09:35:41.868Z,97480.59
2022-09-09T09:40:58.670Z,97481.06
2022-09-09T09:46:17.216Z,97483.78
2022-09-09T09:51:23.708Z,97477.88
2022-09-09T09:56:30.064Z,97477.22
2022-09-09T10:01:34.904Z,97477.91
2022-09-09T10:06:40.846Z,97475.81
2022-09-09T10:11:49.980Z,97473.25
2022-09-09T10:17:23.331Z,97479.59
2022-09-09T10:22:33.062Z,97483.13
2022-09-09T10:27:58.948Z,97476.69
2022-09-09T10:33:10.976Z,97474.97
2022-09-09T10:38:18.734Z,97477.06
2022-09-09T10:43:32.983Z,97466.56
2022-09-09T10:48:42.251Z,97466.06
2022-09-09T10:54:12.254Z,97465.41
2022-09-09T10:59:21.771Z,97459.31
2022-09-09T11:04:29.338Z,97466.50
2022-09-09T11:09:37.729Z,97465.28
2022-09-09T11:14:57.280Z,97467.94
2022-09-09T11:19:59.202Z,97460.38
2022-09-09T11:25:11.770Z,97466.66
2022-09-09T11:30:54.871Z,97472.72
2022-09-09T11:36:25.899Z,97469.59
2022-09-09T11:41:35.701Z,97479.91
2022-09-09T11:46:39.999Z,97470.28
2022-09-09T11:51:41.548Z,97465.06
2022-09-09T11:56:47.063Z,97459.09
2022-09-09T12:02:00.836Z,97455.06
2022-09-09T12:07:27.553Z,97449.50
2022-09-09T12:12:36.756Z,97440.25
2022-09-09T12:17:45.758Z,97442.31
2022-09-09T12:23:00.488Z,97436.47
2022-09-09T12:28:09.630Z,97425.81
2022-09-09T12:33:16.168Z,97424.28
2022-09-09T12:38:35.238Z,97429.66
2022-09-09T12:43:37.363Z,97432.28
2022-09-09T12:48:43.134Z,97425.50
2022-09-09T12:53:46.968Z,97423.13
2022-09-09T12:58:52.562Z,97414.44
2022-09-09T13:03:54.890Z,97407.94
2022-09-09T13:08:59.792Z,97401.41
2022-09-09T13:14:02.065Z,97396.31
2022-09-09T13:19:10.051Z,97400.50
2022-09-09T13:24:34.747Z,97410.59
2022-09-09T13:29:38.221Z,97404.44
2022-09-09T13:34:40.204Z,97399.53
2022-09-09T13:39:41.804Z,97399.25
2022-09-09T13:44:43.613Z,97401.03
2022-09-09T13:49:46.674Z,97398.44
2022-09-09T13:54:52.663Z,97390.06
2022-09-09T14:00:06.082Z,97389.06
2022-09-09T14:05:08.103Z,97382.63
2022-09-09T14:10:11.124Z,97379.88
2022-09-09T14:15:13.349Z,97379.69
2022-09-09T14:20:16.360Z,97380.88
2022-09-09T14:25:18.198Z,97385.03
2022-09-09T14:30:19.754Z,97380.25
2022-09-09T14:35:21.262Z,97364.44
2022-09-09T14:40:22.887Z,97354.00
2022-09-09T14:45:25.838Z,97362.91
2022-09-09T14:50:27.438Z,97359.28
2022-09-09T14:55:30.190Z,97385.16
2022-09-09T15:00:31.928Z,97396.97
2022-09-09T15:05:33.482Z,97394.78
2022-09-09T15:10:35.000Z,97400.66
2022-09-09T15:15:36.659Z,97392.22
2022-09-09T15:20:40.277Z,97393.59
2022-09-09T15:25:56.726Z,97405.50
2022-09-09T15:30:59.051Z,97396.97
2022-09-09T15:36:00.715Z,97400.78
2022-09-09T15:41:02.252Z,97416.59
2022-09-09T15:46:29.398Z,97407.19
2022-09-09T15:51:42.207Z,97402.63
2022-09-09T15:56:46.303Z,97402.53
2022-09-09T16:01:47.926Z,97380.41
2022-09-09T16:06:51.147Z,97379.34
2022-09-09T16:11:54.202Z,97384.31
2022-09-09T16:16:56.647Z,97390.00
2022-09-09T16:21:58.981Z,97388.09
2022-09-09T16:27:01.862Z,97402.31
2022-09-09T16:32:04.383Z,97395.13
2022-09-09T16:37:06.237Z,97412.09
2022-09-09T16:42:08.648Z,97413.53
2022-09-09T16:47:10.402Z,97412.53
2022-09-09T16:52:12.147Z,97410.78
2022-09-09T16:57:13.843Z,97422.25
2022-09-09T17:02:15.660Z,97422.84
2022-09-09T17:07:17.623Z,97415.97
2022-09-09T17:12:19.325Z,97418.31
2022-09-09T17:17:31.602Z,97419.94
2022-09-09T17:22:34.064Z,97409.66
2022-09-09T17:27:35.862Z,97408.97
2022-09-09T17:32:37.563Z,97406.91
2022-09-09T17:37:39.721Z,97407.38
2022-09-09T17:42:41.748Z,97411.97
2022-09-09T17:47:43.939Z,97404.50
2022-09-09T17:52:45.731Z,97412.66
2022-09-09T17:57:47.987Z,97407.31
2022-09-09T18:02:49.891Z,97415.03
2022-09-09T18:07:51.697Z,97412.41
2022-09-09T18:12:53.435Z,97414.06
2022-09-09T18:17:55.252Z,97417.50
2022-09-09T18:22:56.959Z,97430.25
2022-09-09T18:27:58.699Z,97436.06
2022-09-09T18:33:00.641Z,97436.13
2022-09-09T18:38:02.435Z,97431.41
2022-09-09T18:43:04.196Z,97438.44
2022-09-09T18:48:05.995Z,97428.53
2022-09-09T18:53:07.778Z,97433.25
2022-09-09T18:58:09.511Z,97432.31
2022-09-09T19:03:11.213Z,97439.59
2022-09-09T19:08:13.013Z,97444.22
2022-09-09T19:13:15.462Z,97448.88
2022-09-09T19:18:17.209Z,97459.13
2022-09-09T19:23:19.428Z,97465.94
2022-09-09T19:28:21.125Z,97475.16
2022-09-09T19:33:22.832Z,97482.97
2022-09-09T19:38:25.106Z,97482.03
2022-09-09T19:43:26.854Z,97493.72
2022-09-09T19:48:34.323Z,97485.88
2022-09-09T19:53:39.620Z,97478.06
2022-09-09T19:58:41.820Z,97480.63
2022-09-09T20:03:45.177Z,97482.25
2022-09-09T20:08:48.526Z,97485.84
2022-09-09T20:13:50.559Z,97507.94
2022-09-09T20:18:56.578Z,97503.50
2022-09-09T20:24:01.003Z,97504.81
2022-09-09T20:29:07.851Z,97501.06
2022-09-09T20:34:15.589Z,97508.25
2022-09-09T20:39:22.593Z,97505.72
2022-09-09T20:44:24.790Z,97512.88
2022-09-09T20:49:26.613Z,97505.31
2022-09-09T20:54:32.235Z,97521.28
2022-09-09T20:59:34.959Z,97517.88
2022-09-09T21:04:38.172Z,97515.28
2022-09-09T21:09:41.113Z,97513.47
2022-09-09T21:14:42.872Z,97512.69
2022-09-09T21:19:45.230Z,97521.91
2022-09-09T21:24:47.002Z,97511.66
2022-09-09T21:29:50.085Z,97504.94
2022-09-09T21:34:52.012Z,97500.34
2022-09-09T21:39:53.771Z,97500.56
2022-09-09T21:44:55.927Z,97511.84
2022-09-09T21:49:57.639Z,97520.06
2022-09-09T21:54:59.401Z,97515.03
2022-09-09T22:00:01.179Z,97509.75
2022-09-09T22:05:02.947Z,97514.78
2022-09-09T22:10:05.259Z,97508.53
2022-09-09T22:15:09.810Z,97513.53
2022-09-09T22:20:12.528Z,97505.53
2022-09-09T22:25:14.741Z,97505.16
2022-09-09T22:30:16.295Z,97507.03
2022-09-09T22:35:17.935Z,97507.22
2022-09-09T22:40:19.476Z,97504.41
2022-09-09T22:45:21.756Z,97500.38
2022-09-09T22:50:23.566Z,97503.56
2022-09-09T22:55:25.993Z,97493.88
2022-09-09T23:00:27.643Z,97484.34
2022-09-09T23:05:29.209Z,97485.06
2022-09-09T23:10:33.088Z,97482.38
2022-09-09T23:15:36.791Z,97476.91
2022-09-09T23:20:38.989Z,97478.72
2022-09-09T23:25:40.532Z,97486.50
2022-09-09T23:30:42.529Z,97484.25
2022-09-09T23:35:44.420Z,97483.75
2022-09-09T23:40:47.148Z,97485.91
2022-09-09T23:45:50.356Z,97482.03
2022-09-09T23:50:51.887Z,97477.56
2022-09-09T23:55:53.782Z,97478.94
